Time;durP1;ratioP1;P1;durP2;ratioP2;P2;SDS_P1;SDS_P2;PMS_P1;PMS_P2;Temp;Humidity;BMP_temperature;BMP_pressure;BME280_temperature;BME280_humidity;BME280_pressure;Samples;Min_cycle;Max_cycle;Signal;HPM_P1;HPM_P2
2021/08/09 00:01:48;;;;;;;0.40;0.20;;;15.80;1.00;;;;;;5034261;28;20173;-67
2021/08/09 00:04:14;;;;;;;0.50;0.30;;;15.70;1.00;;;;;;5034555;28;20178;-67
2021/08/09 00:06:39;;;;;;;0.40;0.17;;;15.70;1.00;;;;;;5034389;28;20560;-67
2021/08/09 00:09:06;;;;;;;0.70;0.30;;;15.60;1.00;;;;;;5033382;28;20610;-67
2021/08/09 00:11:32;;;;;;;0.40;0.20;;;15.70;1.00;;;;;;5034203;28;20623;-67
2021/08/09 00:13:58;;;;;;;0.40;0.17;;;15.70;1.00;;;;;;5034250;28;20279;-67
2021/08/09 00:16:24;;;;;;;0.40;0.20;;;15.70;1.00;;;;;;5034127;28;20432;-66
2021/08/09 00:18:50;;;;;;;0.40;0.30;;;15.60;1.50;;;;;;5033943;28;20439;-67
2021/08/09 00:21:17;;;;;;;0.40;0.20;;;15.60;2.40;;;;;;5034110;28;20185;-67
2021/08/09 00:23:43;;;;;;;0.40;0.20;;;15.50;4.90;;;;;;5034219;28;20255;-67
2021/08/09 00:26:09;;;;;;;0.40;0.20;;;15.50;13.80;;;;;;5034042;28;20611;-67
2021/08/09 00:28:34;;;;;;;0.40;0.17;;;15.40;42.90;;;;;;5034327;28;20461;-67
2021/08/09 00:31:00;;;;;;;0.40;0.20;;;15.40;68.90;;;;;;5034169;28;20765;-68
2021/08/09 00:33:25;;;;;;;0.40;0.20;;;15.40;48.60;;;;;;5033971;28;20268;-66
2021/08/09 00:35:51;;;;;;;0.40;0.20;;;15.40;58.50;;;;;;5033855;28;20326;-67
2021/08/09 00:38:16;;;;;;;0.40;0.20;;;15.40;68.70;;;;;;5033896;28;20169;-67
2021/08/09 00:40:42;;;;;;;0.40;0.20;;;15.40;84.50;;;;;;5033956;28;20229;-67
2021/08/09 00:43:08;;;;;;;0.40;0.20;;;15.40;62.40;;;;;;5033971;28;20174;-67
2021/08/09 00:45:34;;;;;;;0.40;0.20;;;15.40;74.60;;;;;;5033854;28;20189;-67
2021/08/09 00:47:59;;;;;;;0.93;0.40;;;15.40;50.90;;;;;;5033907;28;20684;-67
2021/08/09 00:50:25;;;;;;;0.40;0.20;;;15.40;75.20;;;;;;5033677;28;20450;-67
2021/08/09 00:52:51;;;;;;;1.07;0.33;;;15.50;91.90;;;;;;5033663;28;20196;-67
2021/08/09 00:55:18;;;;;;;0.63;0.57;;;15.60;37.70;;;;;;5033491;28;20481;-67
2021/08/09 00:57:44;;;;;;;0.40;0.10;;;15.70;18.40;;;;;;5033755;28;20165;-67
2021/08/09 01:00:10;;;;;;;0.40;0.20;;;15.90;1.00;;;;;;5033942;28;20192;-67
2021/08/09 01:02:36;;;;;;;0.40;0.20;;;16.10;1.00;;;;;;5033703;28;20991;-67
2021/08/09 01:05:03;;;;;;;0.40;0.20;;;15.90;1.00;;;;;;5037754;28;20273;-67
2021/08/09 01:07:35;;;;;;;0.55;0.22;;;16.00;1.00;;;;;;5037732;28;20197;-67
2021/08/09 01:10:35;;;;;;;0.40;0.20;;;16.00;1.00;;;;;;5036559;28;20193;-66
2021/08/09 01:13:14;;;;;;;0.40;0.17;;;16.00;1.00;;;;;;5037479;28;20193;-67
2021/08/09 01:15:43;;;;;;;0.50;0.30;;;16.10;1.00;;;;;;5037708;28;20281;-67
2021/08/09 01:18:11;;;;;;;0.40;0.20;;;16.10;1.00;;;;;;5037285;28;20170;-67
2021/08/09 01:20:50;;;;;;;0.40;0.20;;;16.20;1.00;;;;;;5037699;28;20181;-67
2021/08/09 01:23:25;;;;;;;0.40;0.20;;;16.30;1.00;;;;;;5037442;28;20177;-68
2021/08/09 01:26:03;;;;;;;0.40;0.20;;;16.40;1.00;;;;;;5037482;28;20438;-68
2021/08/09 01:28:31;;;;;;;0.40;0.20;;;16.30;1.00;;;;;;5037344;28;20177;-68
2021/08/09 01:30:59;;;;;;;1.48;0.52;;;16.30;1.00;;;;;;5037121;28;20607;-68
2021/08/09 01:33:26;;;;;;;0.40;0.20;;;16.10;1.00;;;;;;5037023;28;20525;-68
2021/08/09 01:35:53;;;;;;;0.40;0.20;;;16.00;1.00;;;;;;5037095;28;20202;-68
2021/08/09 01:38:21;;;;;;;0.40;0.10;;;16.00;1.00;;;;;;5036726;28;20438;-68
2021/08/09 01:40:48;;;;;;;0.40;0.20;;;16.10;1.00;;;;;;5036849;28;20173;-68
2021/08/09 01:43:16;;;;;;;0.40;0.10;;;16.20;1.00;;;;;;5035983;28;20427;-68
2021/08/09 01:45:42;;;;;;;0.40;0.20;;;16.20;1.00;;;;;;5035923;28;20185;-68
2021/08/09 01:48:09;;;;;;;0.40;0.20;;;16.10;1.00;;;;;;5036624;28;20443;-68
2021/08/09 01:50:35;;;;;;;0.40;0.20;;;16.10;1.00;;;;;;5036846;28;20260;-68
2021/08/09 01:53:03;;;;;;;0.40;0.20;;;16.00;1.00;;;;;;5036712;28;20492;-68
2021/08/09 01:55:28;;;;;;;0.40;0.15;;;16.00;1.00;;;;;;5034826;28;20213;-68
2021/08/09 01:57:54;;;;;;;0.50;0.20;;;16.00;1.00;;;;;;5035358;28;20178;-68
2021/08/09 02:00:20;;;;;;;0.40;0.20;;;16.00;1.00;;;;;;5034298;28;20204;-68
2021/08/09 02:02:48;;;;;;;0.40;0.20;;;15.90;1.00;;;;;;5035450;28;20427;-68
2021/08/09 02:05:17;;;;;;;0.40;0.20;;;15.90;1.00;;;;;;5034307;28;20485;-68
2021/08/09 02:07:46;;;;;;;0.40;0.20;;;16.00;1.00;;;;;;5035313;28;20181;-68
2021/08/09 02:10:15;;;;;;;0.40;0.20;;;16.00;1.00;;;;;;5035113;28;20177;-68
2021/08/09 02:12:50;;;;;;;0.40;0.20;;;16.00;1.00;;;;;;5034152;28;20235;-68
2021/08/09 02:15:20;;;;;;;0.70;0.70;;;16.00;1.00;;;;;;5035165;28;20208;-68
2021/08/09 02:17:53;;;;;;;0.40;0.20;;;16.00;1.00;;;;;;5034234;28;20420;-68
2021/08/09 02:20:31;;;;;;;0.40;0.20;;;16.00;1.00;;;;;;5035326;28;20174;-68
2021/08/09 02:23:00;;;;;;;0.40;0.20;;;16.00;1.00;;;;;;5035013;28;20188;-68
2021/08/09 02:25:27;;;;;;;0.90;0.90;;;16.10;1.00;;;;;;5034982;28;20181;-68
2021/08/09 02:28:05;;;;;;;0.40;0.20;;;16.10;1.00;;;;;;5034841;28;20179;-68
2021/08/09 02:30:31;;;;;;;0.40;0.20;;;16.10;1.00;;;;;;5034963;28;20205;-68
2021/08/09 02:33:00;;;;;;;0.40;0.20;;;16.00;1.00;;;;;;5034870;28;20185;-68
2021/08/09 02:35:26;;;;;;;0.40;0.20;;;16.10;1.00;;;;;;5034680;28;20236;-68
2021/08/09 02:37:53;;;;;;;0.63;0.47;;;16.20;1.00;;;;;;5033561;28;20181;-68
2021/08/09 02:40:20;;;;;;;0.40;0.20;;;16.20;1.00;;;;;;5034573;28;20841;-68
2021/08/09 02:42:47;;;;;;;0.40;0.20;;;16.10;1.00;;;;;;5034883;28;20256;-67
2021/08/09 02:45:13;;;;;;;0.40;0.20;;;16.20;1.00;;;;;;5034799;28;20178;-68
2021/08/09 02:47:39;;;;;;;0.40;0.10;;;16.30;1.00;;;;;;5034562;28;20527;-68
2021/08/09 02:50:09;;;;;;;0.40;0.20;;;16.10;1.00;;;;;;5033445;28;20247;-68
2021/08/09 02:52:37;;;;;;;0.40;0.20;;;16.10;1.00;;;;;;5034430;28;20435;-68
2021/08/09 02:55:03;;;;;;;0.40;0.20;;;16.10;1.00;;;;;;4992634;28;1209335;-68
2021/08/09 02:57:31;;;;;;;0.80;0.80;;;16.10;1.00;;;;;;5035410;28;20509;-68
2021/08/09 02:59:57;;;;;;;0.40;0.30;;;16.10;1.00;;;;;;5035373;28;20173;-67
2021/08/09 03:02:25;;;;;;;0.40;0.10;;;16.00;1.00;;;;;;5035372;28;20581;-67
2021/08/09 03:04:51;;;;;;;0.40;0.20;;;15.90;1.00;;;;;;5035297;28;20915;-67
2021/08/09 03:07:18;;;;;;;0.40;0.10;;;15.90;1.00;;;;;;5035160;28;20173;-67
2021/08/09 03:09:44;;;;;;;0.50;0.20;;;15.80;1.00;;;;;;5035175;28;20177;-67
2021/08/09 03:12:16;;;;;;;0.40;0.17;;;15.70;1.00;;;;;;5034230;28;20268;-68
2021/08/09 03:14:42;;;;;;;0.40;0.20;;;15.70;1.00;;;;;;5035146;28;20194;-67
2021/08/09 03:17:07;;;;;;;0.40;0.20;;;15.60;5.20;;;;;;5034952;28;20232;-68
2021/08/09 03:19:33;;;;;;;1.23;0.30;;;15.70;15.90;;;;;;5034801;28;20424;-68
2021/08/09 03:22:00;;;;;;;0.40;0.20;;;15.70;17.60;;;;;;5034972;28;20178;-68
2021/08/09 03:24:28;;;;;;;1.75;0.45;;;15.60;15.20;;;;;;5034791;28;20181;-68
2021/08/09 03:26:53;;;;;;;0.45;0.30;;;15.50;29.10;;;;;;5034217;28;20173;-67
2021/08/09 03:29:19;;;;;;;0.40;0.20;;;15.40;57.50;;;;;;5034721;28;20205;-67
2021/08/09 03:31:46;;;;;;;0.40;0.20;;;15.40;90.90;;;;;;5035232;28;20189;-67
2021/08/09 03:34:12;;;;;;;0.40;0.10;;;15.50;91.40;;;;;;5034589;28;20637;-67
2021/08/09 03:36:41;;;;;;;0.40;0.20;;;15.40;84.50;;;;;;5034654;28;20177;-67
2021/08/09 03:39:08;;;;;;;4.00;0.65;;;15.40;97.20;;;;;;5034608;28;20428;-67
2021/08/09 03:41:34;;;;;;;0.40;0.17;;;15.40;98.60;;;;;;5034665;28;20166;-67
2021/08/09 03:43:59;;;;;;;0.40;0.20;;;15.40;99.90;;;;;;5034671;28;20304;-67
2021/08/09 03:46:25;;;;;;;0.40;0.20;;;15.50;99.90;;;;;;5034421;28;20920;-68
2021/08/09 03:48:50;;;;;;;0.40;0.20;;;15.50;74.20;;;;;;5034276;28;20641;-68
2021/08/09 03:51:16;;;;;;;0.40;0.20;;;15.50;67.40;;;;;;5033454;28;20738;-68
2021/08/09 03:53:42;;;;;;;0.40;0.20;;;15.50;90.40;;;;;;5034478;28;20187;-68
2021/08/09 03:56:07;;;;;;;1.00;0.67;;;15.40;95.80;;;;;;5034258;28;20296;-68
2021/08/09 03:58:33;;;;;;;0.40;0.20;;;15.30;99.90;;;;;;5034197;28;20178;-68
2021/08/09 04:00:58;;;;;;;0.40;0.20;;;15.50;99.90;;;;;;5033200;28;20188;-68
2021/08/09 04:03:24;;;;;;;0.40;0.20;;;15.40;99.90;;;;;;5034214;28;20214;-68
2021/08/09 04:05:50;;;;;;;0.40;0.20;;;15.50;99.90;;;;;;5034124;28;20217;-68
2021/08/09 04:08:15;;;;;;;0.40;0.20;;;15.50;95.80;;;;;;5033991;28;20178;-68
2021/08/09 04:10:41;;;;;;;0.40;0.20;;;15.50;98.70;;;;;;5033222;28;20507;-69
2021/08/09 04:13:07;;;;;;;0.40;0.20;;;15.60;89.30;;;;;;5033157;28;20530;-69
2021/08/09 04:15:32;;;;;;;0.40;0.20;;;15.50;85.90;;;;;;5034023;28;20284;-69
2021/08/09 04:17:58;;;;;;;0.40;0.20;;;15.60;86.60;;;;;;5033832;28;20521;-69
2021/08/09 04:20:23;;;;;;;0.40;0.20;;;15.50;75.30;;;;;;5032745;28;20181;-69
2021/08/09 04:22:49;;;;;;;0.40;0.20;;;15.70;66.70;;;;;;5033875;28;20204;-69
2021/08/09 04:25:14;;;;;;;0.40;0.17;;;15.70;23.30;;;;;;5033896;28;20204;-69
2021/08/09 04:27:40;;;;;;;0.50;0.50;;;15.60;15.90;;;;;;5033704;28;20182;-69
2021/08/09 04:30:06;;;;;;;0.40;0.20;;;15.60;20.50;;;;;;5032714;28;20189;-69
2021/08/09 04:32:39;;;;;;;1.70;1.60;;;15.80;42.10;;;;;;5033722;28;20529;-69
2021/08/09 04:35:07;;;;;;;0.40;0.20;;;15.80;13.40;;;;;;5032540;28;20490;-69
2021/08/09 04:37:32;;;;;;;0.40;0.20;;;15.80;1.00;;;;;;5032516;28;20649;-69
2021/08/09 04:39:58;;;;;;;0.60;0.40;;;15.70;1.00;;;;;;5033427;28;20448;-68
2021/08/09 04:42:23;;;;;;;0.50;0.50;;;16.10;7.20;;;;;;5032809;28;20213;-68
2021/08/09 04:44:49;;;;;;;0.80;0.80;;;17.00;1.00;;;;;;5033769;28;20216;-68
2021/08/09 04:47:14;;;;;;;0.40;0.20;;;17.90;1.00;;;;;;5033654;28;20196;-68
2021/08/09 04:49:42;;;;;;;0.50;0.30;;;18.20;99.90;;;;;;5032602;28;20243;-69
2021/08/09 04:52:08;;;;;;;0.40;0.20;;;18.70;1.00;;;;;;5033596;28;20220;-69
2021/08/09 04:54:33;;;;;;;0.40;0.20;;;19.40;99.90;;;;;;5032413;28;20522;-69
2021/08/09 04:56:59;;;;;;;0.40;0.20;;;19.90;99.90;;;;;;5033738;28;20432;-69
2021/08/09 04:59:27;;;;;;;0.40;0.20;;;20.30;20.00;;;;;;5033749;28;20177;-69
2021/08/09 05:01:53;;;;;;;0.40;0.20;;;20.70;99.90;;;;;;5033765;28;20201;-69
2021/08/09 05:04:18;;;;;;;0.80;0.60;;;21.30;1.00;;;;;;5032528;28;20759;-69
2021/08/09 05:06:44;;;;;;;0.40;0.20;;;21.30;1.00;;;;;;5032425;28;20359;-69
2021/08/09 05:09:10;;;;;;;0.50;0.40;;;21.00;1.00;;;;;;5033170;28;20231;-69
2021/08/09 05:11:36;;;;;;;2.00;1.13;;;21.00;91.30;;;;;;5033377;28;20166;-69
2021/08/09 05:14:02;;;;;;;0.40;0.20;;;21.40;1.00;;;;;;5033435;28;20428;-69
2021/08/09 05:16:28;;;;;;;0.40;0.20;;;21.30;1.00;;;;;;5033211;28;20498;-69
2021/08/09 05:18:56;;;;;;;0.70;0.50;;;21.50;1.00;;;;;;5033370;28;20196;-70
2021/08/09 05:21:22;;;;;;;0.40;0.20;;;21.70;99.90;;;;;;5032412;28;20975;-70
2021/08/09 05:23:48;;;;;;;0.60;0.50;;;22.00;99.90;;;;;;5032267;28;20428;-69
2021/08/09 05:26:14;;;;;;;0.40;0.20;;;21.90;99.90;;;;;;5033306;28;20216;-69
2021/08/09 05:28:40;;;;;;;0.77;0.77;;;21.50;1.00;;;;;;5033039;28;20174;-69
2021/08/09 05:31:07;;;;;;;0.50;0.20;;;21.80;99.90;;;;;;5033321;28;20420;-70
2021/08/09 05:33:32;;;;;;;0.93;0.67;;;22.20;99.90;;;;;;5032019;28;20517;-70
2021/08/09 05:35:58;;;;;;;0.50;0.40;;;22.60;99.90;;;;;;5032893;28;20463;-70
2021/08/09 05:38:23;;;;;;;0.40;0.10;;;23.10;48.10;;;;;;5032575;28;20174;-70
2021/08/09 05:40:49;;;;;;;0.50;0.20;;;23.80;1.00;;;;;;5032849;28;20174;-70
2021/08/09 05:43:14;;;;;;;0.50;0.30;;;24.20;1.00;;;;;;5032883;28;20182;-70
2021/08/09 05:45:40;;;;;;;2.30;2.10;;;24.20;1.00;;;;;;5031761;28;20196;-70
2021/08/09 05:48:05;;;;;;;0.50;0.20;;;24.30;1.00;;;;;;5032655;28;20186;-70
2021/08/09 05:50:31;;;;;;;0.40;0.20;;;23.50;1.00;;;;;;5035132;28;20182;-70
2021/08/09 05:52:57;;;;;;;1.37;0.60;;;24.50;1.00;;;;;;5036096;28;20247;-70
2021/08/09 05:55:24;;;;;;;0.60;0.30;;;24.70;1.00;;;;;;5036217;28;20479;-70
2021/08/09 05:57:51;;;;;;;0.70;0.20;;;24.80;1.00;;;;;;5035245;28;20619;-70
2021/08/09 06:00:16;;;;;;;0.50;0.20;;;24.00;1.00;;;;;;5035871;28;20499;-70
2021/08/09 06:02:43;;;;;;;1.03;0.50;;;23.60;1.00;;;;;;5035753;28;20463;-69
2021/08/09 06:05:09;;;;;;;0.50;0.40;;;22.90;99.90;;;;;;5036347;28;20633;-70
2021/08/09 06:07:35;;;;;;;0.50;0.20;;;23.80;1.00;;;;;;5035989;28;20510;-70
2021/08/09 06:10:00;;;;;;;1.90;0.87;;;24.30;1.00;;;;;;5035918;28;20452;-70
2021/08/09 06:12:26;;;;;;;0.40;0.20;;;24.00;1.00;;;;;;5035878;28;20181;-70
2021/08/09 06:14:51;;;;;;;0.50;0.30;;;24.80;1.00;;;;;;5035973;28;20216;-69
2021/08/09 06:17:17;;;;;;;0.50;0.20;;;24.90;1.00;;;;;;5034820;28;20178;-70
2021/08/09 06:19:42;;;;;;;0.50;0.20;;;24.90;1.00;;;;;;5034557;28;20595;-69
2021/08/09 06:22:08;;;;;;;2.13;1.00;;;25.40;1.00;;;;;;5035282;28;20170;-70
2021/08/09 06:24:34;;;;;;;0.93;0.50;;;24.70;1.00;;;;;;5031356;28;20653;-70
2021/08/09 06:26:59;;;;;;;0.80;0.70;;;24.00;1.00;;;;;;5036172;28;20192;-70
2021/08/09 06:29:26;;;;;;;0.50;0.30;;;23.20;21.20;;;;;;5036333;28;20436;-70
2021/08/09 06:31:52;;;;;;;0.50;0.20;;;22.90;99.90;;;;;;5036418;28;20208;-70
2021/08/09 06:34:19;;;;;;;0.40;0.20;;;23.90;1.00;;;;;;5035942;28;20452;-70
2021/08/09 06:36:45;;;;;;;0.50;0.40;;;24.10;1.00;;;;;;5036376;28;20439;-70
2021/08/09 06:39:12;;;;;;;0.40;0.20;;;24.40;1.00;;;;;;5032056;28;20437;-68
2021/08/09 06:41:38;;;;;;;0.60;0.40;;;23.70;1.00;;;;;;5035935;28;20463;-66
2021/08/09 06:44:04;;;;;;;0.50;0.20;;;22.30;99.90;;;;;;5035863;28;20490;-65
2021/08/09 06:46:29;;;;;;;0.50;0.30;;;21.40;1.00;;;;;;5035515;28;20201;-65
2021/08/09 06:48:55;;;;;;;0.40;0.20;;;21.00;99.90;;;;;;5034983;28;20177;-66
2021/08/09 06:51:21;;;;;;;0.60;0.40;;;21.00;1.00;;;;;;5034493;28;20205;-66
2021/08/09 06:53:46;;;;;;;0.97;0.47;;;21.40;99.90;;;;;;5033062;28;20189;-67
2021/08/09 06:56:15;;;;;;;0.40;0.10;;;22.50;1.00;;;;;;5034516;28;20267;-65
2021/08/09 06:58:41;;;;;;;0.60;0.43;;;22.40;1.00;;;;;;5032352;28;20212;-66
2021/08/09 07:01:07;;;;;;;0.50;0.40;;;21.40;99.90;;;;;;5035782;28;20444;-65
2021/08/09 07:03:32;;;;;;;0.40;0.20;;;20.80;1.00;;;;;;5029483;28;20440;-65
2021/08/09 07:05:58;;;;;;;0.47;0.20;;;21.00;1.00;;;;;;5032525;28;20272;-66
2021/08/09 07:08:24;;;;;;;0.50;0.30;;;21.40;99.90;;;;;;5035047;28;20205;-66
2021/08/09 07:10:51;;;;;;;0.40;0.20;;;21.30;99.90;;;;;;5053800;28;20641;-66
2021/08/09 07:13:17;;;;;;;0.40;0.20;;;21.00;1.00;;;;;;5032849;28;20642;-67
2021/08/09 07:15:43;;;;;;;0.50;0.30;;;20.80;99.90;;;;;;5048611;28;20546;-64
2021/08/09 07:18:08;;;;;;;0.40;0.20;;;20.70;99.90;;;;;;5037823;28;20216;-66
2021/08/09 07:20:34;;;;;;;0.50;0.20;;;20.40;1.00;;;;;;5035582;28;20196;-66
2021/08/09 07:23:00;;;;;;;0.63;0.50;;;20.30;99.90;;;;;;5045184;28;20622;-64
2021/08/09 07:25:25;;;;;;;0.50;0.40;;;20.20;1.00;;;;;;5034892;28;20184;-66
2021/08/09 07:27:51;;;;;;;0.60;0.30;;;19.70;1.00;;;;;;5034435;28;20181;-66
2021/08/09 07:30:18;;;;;;;0.40;0.20;;;19.50;1.00;;;;;;5044954;28;20177;-64
2021/08/09 07:32:43;;;;;;;0.70;0.50;;;19.60;1.00;;;;;;5054508;28;20507;-64
2021/08/09 07:35:09;;;;;;;1.03;0.90;;;19.80;1.00;;;;;;5050219;28;20925;-66
2021/08/09 07:37:35;;;;;;;0.50;0.40;;;19.70;69.40;;;;;;5034484;28;20597;-67
2021/08/09 07:40:00;;;;;;;0.50;0.20;;;20.00;1.00;;;;;;5034200;28;20424;-65
2021/08/09 07:42:26;;;;;;;4.30;1.17;;;20.10;1.00;;;;;;5032351;28;20207;-65
2021/08/09 07:44:53;;;;;;;0.40;0.20;;;20.10;1.00;;;;;;5034481;28;20185;-66
2021/08/09 07:47:19;;;;;;;0.40;0.20;;;20.10;1.00;;;;;;5037246;28;20586;-65
2021/08/09 07:49:45;;;;;;;0.40;0.20;;;20.40;99.90;;;;;;5032386;28;20511;-67
2021/08/09 07:52:10;;;;;;;0.50;0.20;;;20.40;99.90;;;;;;5034502;28;20679;-65
2021/08/09 07:54:36;;;;;;;0.40;0.20;;;20.60;99.90;;;;;;5030545;28;20282;-68
2021/08/09 07:57:03;;;;;;;0.40;0.20;;;20.90;99.90;;;;;;5034183;28;20683;-68
2021/08/09 07:59:33;;;;;;;1.07;0.50;;;20.60;2.40;;;;;;5032123;28;20192;-64
2021/08/09 08:02:01;;;;;;;4.53;0.67;;;20.40;1.00;;;;;;5041692;28;20771;-65
2021/08/09 08:04:28;;;;;;;0.40;0.20;;;20.40;99.90;;;;;;5039862;28;20439;-64
2021/08/09 08:06:53;;;;;;;0.50;0.30;;;20.60;99.90;;;;;;5035852;28;20755;-65
2021/08/09 08:09:19;;;;;;;0.60;0.40;;;20.80;1.00;;;;;;5040309;28;20998;-65
2021/08/09 08:11:46;;;;;;;1.63;0.80;;;20.90;99.90;;;;;;5036605;28;20181;-66
2021/08/09 08:14:11;;;;;;;1.63;1.53;;;20.80;99.90;;;;;;5037943;28;20200;-65
2021/08/09 08:16:37;;;;;;;0.40;0.20;;;21.10;68.70;;;;;;5040790;28;20472;-69
2021/08/09 08:19:02;;;;;;;0.40;0.20;;;21.10;99.90;;;;;;5038223;28;20186;-68
2021/08/09 08:21:28;;;;;;;0.50;0.20;;;21.10;99.90;;;;;;5037079;28;20212;-69
2021/08/09 08:23:53;;;;;;;1.43;1.17;;;21.50;1.00;;;;;;5034882;28;20178;-69
2021/08/09 08:26:19;;;;;;;0.50;0.20;;;21.40;1.00;;;;;;5032694;28;20190;-66
2021/08/09 08:28:44;;;;;;;0.60;0.30;;;21.40;1.00;;;;;;5034047;28;20697;-68
2021/08/09 08:31:10;;;;;;;0.90;0.30;;;21.60;99.90;;;;;;5033450;28;20189;-69
2021/08/09 08:33:36;;;;;;;0.50;0.27;;;21.70;99.90;;;;;;5036959;28;20195;-69
2021/08/09 08:36:01;;;;;;;0.40;0.20;;;21.40;1.00;;;;;;5052758;28;20239;-70
2021/08/09 08:38:27;;;;;;;0.97;0.43;;;21.20;52.10;;;;;;5033374;28;20174;-70
2021/08/09 08:40:53;;;;;;;0.40;0.20;;;21.60;1.00;;;;;;5033648;28;20193;-71
2021/08/09 08:43:27;;;;;;;0.70;0.50;;;21.70;99.90;;;;;;5032067;28;20196;-70
2021/08/09 08:45:55;;;;;;;0.47;0.20;;;22.00;99.90;;;;;;5033232;28;20443;-68
2021/08/09 08:48:21;;;;;;;0.40;0.20;;;21.90;82.00;;;;;;5033033;28;20757;-67
2021/08/09 08:50:47;;;;;;;0.50;0.30;;;21.80;69.50;;;;;;5034407;28;20432;-69
2021/08/09 08:53:12;;;;;;;1.13;0.40;;;22.00;1.00;;;;;;5034107;28;20440;-69
2021/08/09 08:55:38;;;;;;;2.07;1.00;;;21.90;1.00;;;;;;5033087;28;20564;-69
2021/08/09 08:58:03;;;;;;;0.53;0.33;;;21.90;1.00;;;;;;5033190;28;20191;-69
2021/08/09 09:00:39;;;;;;;0.50;0.30;;;21.80;1.00;;;;;;5033144;28;20232;-68
2021/08/09 09:03:16;;;;;;;0.40;0.20;;;21.70;1.00;;;;;;5030736;28;20198;-69
2021/08/09 09:05:55;;;;;;;0.40;0.20;;;21.90;1.00;;;;;;5026095;28;20929;-68
2021/08/09 09:08:37;;;;;;;0.60;0.30;;;22.10;9.00;;;;;;5041506;28;20517;-68
2021/08/09 09:11:04;;;;;;;1.20;0.63;;;22.10;1.00;;;;;;5031069;28;20435;-68
2021/08/09 09:13:30;;;;;;;0.53;0.37;;;22.10;1.00;;;;;;5033006;28;20857;-68
2021/08/09 09:16:03;;;;;;;0.40;0.10;;;21.90;1.00;;;;;;5033217;28;20550;-67
2021/08/09 09:18:49;;;;;;;0.40;0.10;;;21.90;1.00;;;;;;5035729;28;20170;-70
2021/08/09 09:21:36;;;;;;;0.90;0.43;;;22.20;1.00;;;;;;5035113;28;20423;-69
2021/08/09 09:24:13;;;;;;;0.40;0.20;;;22.90;99.90;;;;;;5037175;28;20450;-68
2021/08/09 09:26:41;;;;;;;0.50;0.20;;;23.20;99.90;;;;;;5037793;28;20427;-69
2021/08/09 09:29:12;;;;;;;0.60;0.20;;;23.30;61.80;;;;;;5037538;28;20439;-70
2021/08/09 09:31:39;;;;;;;0.50;0.20;;;23.40;1.00;;;;;;5037973;28;20420;-69
2021/08/09 09:34:17;;;;;;;0.50;0.20;;;23.30;24.90;;;;;;5036977;28;20723;-69
2021/08/09 09:36:51;;;;;;;0.40;0.10;;;23.00;81.30;;;;;;5036593;28;20912;-68
2021/08/09 09:39:38;;;;;;;1.67;0.53;;;23.00;99.90;;;;;;5037174;28;20758;-68
2021/08/09 09:42:12;;;;;;;0.70;0.30;;;23.00;49.50;;;;;;5037327;28;20755;-68
2021/08/09 09:44:40;;;;;;;0.43;0.20;;;22.80;13.40;;;;;;5037443;28;20427;-68
2021/08/09 09:47:22;;;;;;;1.60;0.33;;;22.70;98.70;;;;;;5037424;28;20435;-68
2021/08/09 09:49:50;;;;;;;2.30;0.40;;;22.80;99.90;;;;;;5037606;28;20775;-68
2021/08/09 09:52:35;;;;;;;0.40;0.20;;;22.70;99.90;;;;;;5037807;28;20420;-67
2021/08/09 09:55:09;;;;;;;3.03;0.77;;;22.60;49.00;;;;;;5036786;28;20578;-68
2021/08/09 09:57:37;;;;;;;0.70;0.40;;;22.90;1.00;;;;;;5036756;28;20506;-69
2021/08/09 10:00:08;;;;;;;0.67;0.43;;;23.30;1.00;;;;;;5036224;28;20497;-67
2021/08/09 10:02:34;;;;;;;0.70;0.57;;;23.30;1.00;;;;;;5036328;28;20943;-67
2021/08/09 10:05:01;;;;;;;4.83;0.83;;;23.50;1.00;;;;;;5036371;28;20454;-70
2021/08/09 10:07:29;;;;;;;0.50;0.20;;;23.90;1.00;;;;;;5036997;28;20268;-69
2021/08/09 10:09:55;;;;;;;0.50;0.20;;;24.00;1.00;;;;;;5054862;28;20821;-69
2021/08/09 10:12:28;;;;;;;0.60;0.30;;;23.90;1.00;;;;;;5041668;28;20440;-67
2021/08/09 10:14:54;;;;;;;2.20;0.73;;;23.50;1.00;;;;;;5035982;28;20452;-67
2021/08/09 10:17:22;;;;;;;0.60;0.40;;;23.40;1.00;;;;;;5036066;28;20489;-67
2021/08/09 10:19:50;;;;;;;0.50;0.20;;;23.50;1.00;;;;;;5036129;28;20893;-67
2021/08/09 10:22:21;;;;;;;0.50;0.20;;;23.40;1.00;;;;;;5036384;28;20769;-67
2021/08/09 10:24:50;;;;;;;0.50;0.20;;;23.30;1.00;;;;;;5036564;28;20424;-67
2021/08/09 10:27:16;;;;;;;0.50;0.20;;;23.50;1.00;;;;;;5036102;28;20432;-67
2021/08/09 10:30:00;;;;;;;0.50;0.20;;;23.90;1.00;;;;;;5036205;28;20779;-66
2021/08/09 10:32:26;;;;;;;1.27;0.30;;;24.30;1.00;;;;;;5036157;28;20439;-65
2021/08/09 10:34:52;;;;;;;0.50;0.20;;;24.20;1.00;;;;;;5035380;28;20460;-67
2021/08/09 10:37:23;;;;;;;0.50;0.20;;;24.10;1.00;;;;;;5036164;28;20452;-66
2021/08/09 10:40:00;;;;;;;0.60;0.20;;;23.90;1.00;;;;;;5035868;28;20621;-67
2021/08/09 10:42:45;;;;;;;0.60;0.43;;;23.50;1.00;;;;;;5035718;28;20462;-67
2021/08/09 10:45:34;;;;;;;0.60;0.20;;;23.30;1.00;;;;;;5035915;28;20889;-68
2021/08/09 10:48:00;;;;;;;0.50;0.20;;;23.40;1.00;;;;;;5049235;28;20439;-67
2021/08/09 10:50:31;;;;;;;0.60;0.40;;;23.60;1.00;;;;;;5052847;28;20895;-67
2021/08/09 10:52:58;;;;;;;1.60;0.93;;;24.10;1.00;;;;;;5035249;28;20189;-68
2021/08/09 10:55:40;;;;;;;3.90;3.70;;;24.70;1.00;;;;;;5035150;28;20474;-68
2021/08/09 10:58:06;;;;;;;0.50;0.33;;;24.60;1.00;;;;;;5035338;28;20462;-68
2021/08/09 11:00:38;;;;;;;0.50;0.20;;;23.90;1.00;;;;;;5034275;28;20515;-68
2021/08/09 11:03:16;;;;;;;0.93;0.63;;;23.60;1.00;;;;;;5035313;28;20186;-69
2021/08/09 11:05:42;;;;;;;0.50;0.20;;;23.40;1.00;;;;;;5035491;28;20423;-69
2021/08/09 11:08:20;;;;;;;0.80;0.30;;;23.60;1.00;;;;;;5035717;28;20502;-67
2021/08/09 11:10:54;;;;;;;0.90;0.20;;;23.40;1.00;;;;;;5035557;28;20177;-68
2021/08/09 11:13:21;;;;;;;0.50;0.20;;;23.30;1.00;;;;;;5035733;28;20467;-69
2021/08/09 11:15:55;;;;;;;0.50;0.20;;;23.70;1.00;;;;;;5037102;28;20460;-68
2021/08/09 11:18:21;;;;;;;1.27;0.37;;;23.80;1.00;;;;;;5037520;28;20424;-67
2021/08/09 11:20:47;;;;;;;0.50;0.20;;;23.80;1.00;;;;;;5037679;28;20498;-67
2021/08/09 11:23:15;;;;;;;0.50;0.10;;;23.90;1.00;;;;;;5037745;28;20165;-67
2021/08/09 11:25:48;;;;;;;0.50;0.27;;;23.70;1.00;;;;;;5037424;28;20678;-68
2021/08/09 11:28:23;;;;;;;0.50;0.20;;;24.00;1.00;;;;;;5032052;28;20432;-69
2021/08/09 11:31:03;;;;;;;0.50;0.10;;;24.30;1.00;;;;;;5029466;28;20432;-68
2021/08/09 11:33:37;;;;;;;0.50;0.20;;;24.00;1.00;;;;;;5025345;28;20436;-69
2021/08/09 11:36:03;;;;;;;1.93;1.03;;;23.60;1.00;;;;;;5022888;28;20489;-69
2021/08/09 11:38:40;;;;;;;0.50;0.20;;;23.60;1.00;;;;;;5026343;28;20486;-68
2021/08/09 11:41:10;;;;;;;0.50;0.20;;;23.90;1.00;;;;;;5024351;28;20186;-68
2021/08/09 11:43:36;;;;;;;0.50;0.20;;;24.10;1.00;;;;;;5028312;28;20461;-68
2021/08/09 11:46:05;;;;;;;0.50;0.20;;;24.30;1.00;;;;;;5025333;28;20948;-68
2021/08/09 11:48:38;;;;;;;0.50;0.20;;;24.60;1.00;;;;;;5025943;28;20902;-68
2021/08/09 11:51:30;;;;;;;0.50;0.20;;;25.00;1.00;;;;;;5022201;28;20439;-69
2021/08/09 11:53:58;;;;;;;0.50;0.20;;;24.60;1.00;;;;;;5023964;28;20503;-69
2021/08/09 11:56:30;;;;;;;0.50;0.20;;;23.40;1.00;;;;;;5023977;28;20469;-68
2021/08/09 11:58:57;;;;;;;0.50;0.20;;;23.40;1.00;;;;;;5026435;28;20481;-68
2021/08/09 12:01:40;;;;;;;0.50;0.23;;;23.40;1.00;;;;;;5023723;28;20471;-66
2021/08/09 12:04:12;;;;;;;0.50;0.20;;;23.90;1.00;;;;;;5034230;28;20430;-67
2021/08/09 12:06:49;;;;;;;0.50;0.20;;;23.70;1.00;;;;;;5033146;28;20810;-67
2021/08/09 12:09:17;;;;;;;0.50;0.20;;;23.60;1.00;;;;;;5049618;28;20441;-68
2021/08/09 12:11:44;;;;;;;0.60;0.23;;;23.80;1.00;;;;;;5053468;28;20441;-68
2021/08/09 12:14:12;;;;;;;0.73;0.73;;;24.00;1.00;;;;;;5034042;28;20519;-68
2021/08/09 12:16:49;;;;;;;0.60;0.30;;;23.80;1.00;;;;;;5033744;28;20944;-70
2021/08/09 12:19:18;;;;;;;1.53;0.63;;;24.00;1.00;;;;;;5033713;28;20499;-70
2021/08/09 12:21:44;;;;;;;0.50;0.20;;;23.80;1.00;;;;;;5035069;28;20486;-67
2021/08/09 12:24:22;;;;;;;0.50;0.17;;;23.60;1.00;;;;;;5017834;28;20445;-68
2021/08/09 12:26:50;;;;;;;0.50;0.20;;;23.50;1.00;;;;;;5014623;28;20231;-68
2021/08/09 12:29:18;;;;;;;0.60;0.40;;;23.50;1.00;;;;;;5012934;28;20433;-69
2021/08/09 12:31:45;;;;;;;0.50;0.20;;;23.20;1.00;;;;;;5013956;28;20456;-68
2021/08/09 12:34:12;;;;;;;0.50;0.20;;;23.40;1.00;;;;;;5014024;28;20425;-68
2021/08/09 12:36:39;;;;;;;0.50;0.20;;;23.60;1.00;;;;;;5013860;28;20461;-69
2021/08/09 12:39:06;;;;;;;0.57;0.27;;;23.60;1.00;;;;;;5014045;28;20436;-67
2021/08/09 12:41:34;;;;;;;0.50;0.20;;;23.70;1.00;;;;;;5014940;28;20483;-67
2021/08/09 12:44:03;;;;;;;1.60;0.30;;;23.60;1.00;;;;;;5014290;28;20424;-67
2021/08/09 12:46:29;;;;;;;0.50;0.20;;;23.80;1.00;;;;;;5028387;28;20435;-67
2021/08/09 12:48:55;;;;;;;0.50;0.20;;;23.60;1.00;;;;;;5033863;28;20511;-67
2021/08/09 12:51:24;;;;;;;0.50;0.20;;;23.40;1.00;;;;;;5030162;28;20516;-69
2021/08/09 12:53:50;;;;;;;0.60;0.30;;;23.70;1.00;;;;;;5026968;28;20704;-68
2021/08/09 12:56:16;;;;;;;1.40;0.80;;;23.60;1.00;;;;;;5031975;28;20471;-68
2021/08/09 12:58:41;;;;;;;0.50;0.17;;;23.40;1.00;;;;;;5029714;28;20264;-65